Time;durP1;ratioP1;P1;durP2;ratioP2;P2;SDS_P1;SDS_P2;PMS_P1;PMS_P2;Temp;Humidity;BMP_temperature;BMP_pressure;BME280_temperature;BME280_humidity;BME280_pressure;Samples;Min_cycle;Max_cycle;Signal;HPM_P1;HPM_P2
2023/12/21 00:02:24;;;;;;;12.82;2.60;;;;;;;;;;5001473;28;20065;-61
2023/12/21 00:04:50;;;;;;;12.48;3.00;;;;;;;;;;5010353;28;20114;-61
2023/12/21 00:07:17;;;;;;;14.38;2.92;;;;;;;;;;4997485;28;20093;-61
2023/12/21 00:09:43;;;;;;;20.25;3.53;;;;;;;;;;5002647;28;20128;-61
2023/12/21 00:12:09;;;;;;;15.88;2.65;;;;;;;;;;5005970;28;20121;-61
2023/12/21 00:14:35;;;;;;;14.65;2.63;;;;;;;;;;4993895;28;20057;-61
2023/12/21 00:17:01;;;;;;;18.92;2.95;;;;;;;;;;4987973;28;20035;-61
2023/12/21 00:19:27;;;;;;;12.30;2.92;;;;;;;;;;4986009;28;20138;-61
2023/12/21 00:21:53;;;;;;;21.95;3.45;;;;;;;;;;5011128;28;20050;-61
2023/12/21 00:24:19;;;;;;;21.50;3.47;;;;;;;;;;5020935;28;20697;-62
2023/12/21 00:26:45;;;;;;;21.08;3.30;;;;;;;;;;5014955;28;20044;-61
2023/12/21 00:29:11;;;;;;;18.13;3.40;;;;;;;;;;5015678;28;20042;-61
2023/12/21 00:31:37;;;;;;;17.25;2.55;;;;;;;;;;5004544;28;20084;-61
2023/12/21 00:34:03;;;;;;;14.73;2.70;;;;;;;;;;5007044;28;20678;-61
2023/12/21 00:36:29;;;;;;;15.98;2.63;;;;;;;;;;5001661;28;20162;-61
2023/12/21 00:38:55;;;;;;;19.50;3.67;;;;;;;;;;5012685;28;20563;-61
2023/12/21 00:41:21;;;;;;;18.23;3.85;;;;;;;;;;5017703;28;20140;-61
2023/12/21 00:43:47;;;;;;;14.90;2.78;;;;;;;;;;5005772;28;20100;-62
2023/12/21 00:46:12;;;;;;;21.35;2.75;;;;;;;;;;5012461;28;20860;-61
2023/12/21 00:48:39;;;;;;;18.95;3.20;;;;;;;;;;4999815;28;20046;-61
2023/12/21 00:51:06;;;;;;;13.25;2.78;;;;;;;;;;5014827;28;20072;-62
2023/12/21 00:53:32;;;;;;;15.73;2.55;;;;;;;;;;4995978;28;20058;-61
2023/12/21 00:55:58;;;;;;;14.38;2.72;;;;;;;;;;5016305;28;20041;-61
2023/12/21 00:58:24;;;;;;;14.57;3.47;;;;;;;;;;5000918;28;20184;-61
2023/12/21 01:00:50;;;;;;;15.55;3.20;;;;;;;;;;5009118;28;20399;-62
2023/12/21 01:03:16;;;;;;;21.13;3.17;;;;;;;;;;5010314;28;20381;-61
2023/12/21 01:05:42;;;;;;;19.30;2.63;;;;;;;;;;5003090;28;20058;-61
2023/12/21 01:08:08;;;;;;;19.85;2.70;;;;;;;;;;5004927;28;20045;-61
2023/12/21 01:10:38;;;;;;;15.15;3.05;;;;;;;;;;4994597;28;20177;-61
2023/12/21 01:13:04;;;;;;;14.43;2.85;;;;;;;;;;4998687;28;20049;-61
2023/12/21 01:15:30;;;;;;;13.77;2.97;;;;;;;;;;4987515;28;20452;-61
2023/12/21 01:17:56;;;;;;;17.23;3.10;;;;;;;;;;4995176;28;20044;-62
2023/12/21 01:20:22;;;;;;;14.93;2.88;;;;;;;;;;4982225;28;20255;-61
2023/12/21 01:22:48;;;;;;;18.83;2.67;;;;;;;;;;5007598;28;20601;-61
2023/12/21 01:25:14;;;;;;;14.95;2.30;;;;;;;;;;5017952;28;20172;-61
2023/12/21 01:27:41;;;;;;;15.55;2.67;;;;;;;;;;5011608;28;20125;-61
2023/12/21 01:30:08;;;;;;;13.05;2.35;;;;;;;;;;5009360;28;20053;-61
2023/12/21 01:32:34;;;;;;;24.27;4.20;;;;;;;;;;5008382;28;20045;-61
2023/12/21 01:35:00;;;;;;;14.50;2.90;;;;;;;;;;5000661;28;20077;-61
2023/12/21 01:37:26;;;;;;;9.82;2.88;;;;;;;;;;5001047;28;20041;-61
2023/12/21 01:39:52;;;;;;;18.15;2.97;;;;;;;;;;5018468;28;20065;-61
2023/12/21 01:42:19;;;;;;;8.38;2.42;;;;;;;;;;5011725;28;20101;-61
2023/12/21 01:44:45;;;;;;;16.85;3.50;;;;;;;;;;5014792;28;20128;-61
2023/12/21 01:47:11;;;;;;;17.73;2.90;;;;;;;;;;5002886;28;20081;-61
2023/12/21 01:49:37;;;;;;;13.15;3.33;;;;;;;;;;5008591;28;20041;-61
2023/12/21 01:52:05;;;;;;;17.05;3.78;;;;;;;;;;4997223;28;20069;-61
2023/12/21 01:54:31;;;;;;;11.73;2.53;;;;;;;;;;5003877;28;20112;-62
2023/12/21 01:56:57;;;;;;;20.60;2.90;;;;;;;;;;4993188;28;20807;-61
2023/12/21 01:59:23;;;;;;;17.50;3.80;;;;;;;;;;4994824;28;20554;-61
2023/12/21 02:01:49;;;;;;;11.05;2.65;;;;;;;;;;5009507;28;20659;-61
2023/12/21 02:04:15;;;;;;;9.40;2.47;;;;;;;;;;4996758;28;20046;-61
2023/12/21 02:06:41;;;;;;;13.88;2.28;;;;;;;;;;5010772;28;20449;-61
2023/12/21 02:09:07;;;;;;;19.23;2.90;;;;;;;;;;4992826;28;20054;-61
2023/12/21 02:11:33;;;;;;;15.50;3.35;;;;;;;;;;4997450;28;20048;-61
2023/12/21 02:14:00;;;;;;;10.52;2.83;;;;;;;;;;4988677;28;20047;-61
2023/12/21 02:16:34;;;;;;;11.00;2.30;;;;;;;;;;4988855;28;20075;-61
2023/12/21 02:19:00;;;;;;;15.68;2.28;;;;;;;;;;4999204;28;20081;-61
2023/12/21 02:21:28;;;;;;;15.25;2.45;;;;;;;;;;4987835;28;20046;-61
2023/12/21 02:23:55;;;;;;;10.75;2.60;;;;;;;;;;5018537;28;20379;-62
2023/12/21 02:26:22;;;;;;;11.10;2.60;;;;;;;;;;5011207;28;20571;-61
2023/12/21 02:28:48;;;;;;;11.65;2.78;;;;;;;;;;5019994;28;20037;-61
2023/12/21 02:31:14;;;;;;;10.63;2.83;;;;;;;;;;5005384;28;20046;-61
2023/12/21 02:33:40;;;;;;;22.10;3.28;;;;;;;;;;5006717;28;20478;-61
2023/12/21 02:36:07;;;;;;;15.70;2.80;;;;;;;;;;4999371;28;20421;-61
2023/12/21 02:38:33;;;;;;;13.10;2.30;;;;;;;;;;5007642;28;20103;-61
2023/12/21 02:40:59;;;;;;;10.13;2.90;;;;;;;;;;5013850;28;20034;-61
2023/12/21 02:43:25;;;;;;;17.15;2.85;;;;;;;;;;5006039;28;20758;-62
2023/12/21 02:45:51;;;;;;;13.25;2.33;;;;;;;;;;4993534;28;20507;-61
2023/12/21 02:48:17;;;;;;;9.90;2.03;;;;;;;;;;4992568;28;20045;-61
2023/12/21 02:50:43;;;;;;;17.67;2.72;;;;;;;;;;4993841;28;20068;-61
2023/12/21 02:53:09;;;;;;;9.68;2.83;;;;;;;;;;5015593;28;20045;-61
2023/12/21 02:55:35;;;;;;;13.80;2.92;;;;;;;;;;5000483;28;20030;-60
2023/12/21 02:58:01;;;;;;;12.60;2.72;;;;;;;;;;5005611;28;20142;-61
2023/12/21 03:00:27;;;;;;;13.27;2.25;;;;;;;;;;5015085;28;20054;-61
2023/12/21 03:02:53;;;;;;;11.10;2.28;;;;;;;;;;5002149;28;20046;-61
2023/12/21 03:05:19;;;;;;;13.85;2.65;;;;;;;;;;5008074;28;20056;-61
2023/12/21 03:07:45;;;;;;;15.30;2.33;;;;;;;;;;5014759;28;20041;-61
2023/12/21 03:10:11;;;;;;;19.02;3.33;;;;;;;;;;5010482;28;20578;-62
2023/12/21 03:12:37;;;;;;;15.23;3.45;;;;;;;;;;5007495;28;20120;-61
2023/12/21 03:15:03;;;;;;;14.52;2.88;;;;;;;;;;5008703;28;20045;-62
2023/12/21 03:17:29;;;;;;;10.95;2.55;;;;;;;;;;5001291;28;20070;-61
2023/12/21 03:19:57;;;;;;;12.05;2.50;;;;;;;;;;4992058;28;20509;-62
2023/12/21 03:22:23;;;;;;;14.07;2.13;;;;;;;;;;5011974;28;20754;-61
2023/12/21 03:24:49;;;;;;;9.32;2.20;;;;;;;;;;5016547;28;20099;-62
2023/12/21 03:27:17;;;;;;;13.55;2.33;;;;;;;;;;5012157;28;20041;-62
2023/12/21 03:29:44;;;;;;;8.27;2.17;;;;;;;;;;5006783;28;20399;-61
2023/12/21 03:32:10;;;;;;;13.82;2.65;;;;;;;;;;5009353;28;20060;-61
2023/12/21 03:34:36;;;;;;;12.82;3.25;;;;;;;;;;5003859;28;20054;-61
2023/12/21 03:37:02;;;;;;;15.93;2.78;;;;;;;;;;5005324;28;20415;-62
2023/12/21 03:39:28;;;;;;;8.13;1.90;;;;;;;;;;4991677;28;20500;-62
2023/12/21 03:41:54;;;;;;;11.48;2.70;;;;;;;;;;4998713;28;20117;-62
2023/12/21 03:44:21;;;;;;;7.65;2.13;;;;;;;;;;4990527;28;20523;-62
2023/12/21 03:46:47;;;;;;;7.30;1.92;;;;;;;;;;4990758;28;20050;-61
2023/12/21 03:49:14;;;;;;;3.70;1.70;;;;;;;;;;4985887;28;20677;-61
2023/12/21 03:51:40;;;;;;;8.80;2.30;;;;;;;;;;4990760;28;20042;-61
2023/12/21 03:54:07;;;;;;;8.75;2.33;;;;;;;;;;5005784;28;20408;-61
2023/12/21 03:56:33;;;;;;;7.25;1.80;;;;;;;;;;5011536;28;20067;-62
2023/12/21 03:58:59;;;;;;;11.20;3.20;;;;;;;;;;5010521;28;20042;-62
2023/12/21 04:01:25;;;;;;;11.70;2.20;;;;;;;;;;4987708;28;20049;-61
2023/12/21 04:03:51;;;;;;;10.60;2.70;;;;;;;;;;4992740;28;20065;-61
2023/12/21 04:06:17;;;;;;;7.82;2.55;;;;;;;;;;5021201;28;20184;-61
2023/12/21 04:08:43;;;;;;;8.98;2.20;;;;;;;;;;5015157;28;20070;-61
2023/12/21 04:11:09;;;;;;;6.97;2.70;;;;;;;;;;5016669;28;20084;-62
2023/12/21 04:13:35;;;;;;;8.77;2.55;;;;;;;;;;5005845;28;20046;-62
2023/12/21 04:16:01;;;;;;;9.43;2.65;;;;;;;;;;5012875;28;20539;-62
2023/12/21 04:18:29;;;;;;;8.73;2.47;;;;;;;;;;5007048;28;20099;-62
2023/12/21 04:20:55;;;;;;;10.50;2.25;;;;;;;;;;5007142;28;20161;-62
2023/12/21 04:23:21;;;;;;;13.07;2.83;;;;;;;;;;4995253;28;20448;-62
2023/12/21 04:25:47;;;;;;;14.13;2.85;;;;;;;;;;5005945;28;20089;-62
2023/12/21 04:28:13;;;;;;;10.23;2.95;;;;;;;;;;4996284;28;20133;-62
2023/12/21 04:30:39;;;;;;;7.68;2.72;;;;;;;;;;5000385;28;20102;-62
2023/12/21 04:33:05;;;;;;;6.30;2.67;;;;;;;;;;5006753;28;20077;-61
2023/12/21 04:35:31;;;;;;;17.30;3.10;;;;;;;;;;4985595;28;20052;-61
2023/12/21 04:37:57;;;;;;;10.80;2.72;;;;;;;;;;4993006;28;20407;-62
2023/12/21 04:40:23;;;;;;;9.32;2.55;;;;;;;;;;5019764;28;20045;-62
2023/12/21 04:42:55;;;;;;;11.40;2.75;;;;;;;;;;5012058;28;20049;-61
2023/12/21 04:45:21;;;;;;;15.32;2.95;;;;;;;;;;5016563;28;20045;-62
2023/12/21 04:47:47;;;;;;;11.55;2.60;;;;;;;;;;5004237;28;20042;-62
2023/12/21 04:50:13;;;;;;;10.25;2.58;;;;;;;;;;5010060;28;20045;-62
2023/12/21 04:52:39;;;;;;;9.32;2.10;;;;;;;;;;4998257;28;20129;-62
2023/12/21 04:55:05;;;;;;;12.13;2.38;;;;;;;;;;5005693;28;20623;-62
2023/12/21 04:57:31;;;;;;;11.35;3.05;;;;;;;;;;5018621;28;20086;-62
2023/12/21 04:59:57;;;;;;;7.90;2.47;;;;;;;;;;4997859;28;20124;-62
2023/12/21 05:02:23;;;;;;;10.73;2.42;;;;;;;;;;4984549;28;20089;-62
2023/12/21 05:04:49;;;;;;;7.75;2.40;;;;;;;;;;5006511;28;20041;-62
2023/12/21 05:07:15;;;;;;;12.02;2.80;;;;;;;;;;5017535;28;20037;-62
2023/12/21 05:09:41;;;;;;;10.52;2.35;;;;;;;;;;5016421;28;20140;-61
2023/12/21 05:12:07;;;;;;;13.45;2.80;;;;;;;;;;5011752;28;20050;-62
2023/12/21 05:14:33;;;;;;;12.23;2.50;;;;;;;;;;5015835;28;20033;-61
2023/12/21 05:16:59;;;;;;;8.05;2.15;;;;;;;;;;4998944;28;20049;-62
2023/12/21 05:19:25;;;;;;;4.93;1.75;;;;;;;;;;5015204;28;20038;-61
2023/12/21 05:21:51;;;;;;;10.10;2.58;;;;;;;;;;4993846;28;20050;-61
2023/12/21 05:24:17;;;;;;;11.82;2.58;;;;;;;;;;5015728;28;20033;-61
2023/12/21 05:26:43;;;;;;;11.60;2.78;;;;;;;;;;4989761;28;20034;-61
2023/12/21 05:29:09;;;;;;;10.60;2.17;;;;;;;;;;5019453;28;20118;-61
2023/12/21 05:31:37;;;;;;;8.25;1.80;;;;;;;;;;4998984;28;20037;-61
2023/12/21 05:34:04;;;;;;;14.73;2.75;;;;;;;;;;4992045;28;20062;-61
2023/12/21 05:36:30;;;;;;;11.82;2.90;;;;;;;;;;4996032;28;20496;-61
2023/12/21 05:38:56;;;;;;;13.48;2.75;;;;;;;;;;5015891;28;20043;-62
2023/12/21 05:41:22;;;;;;;10.07;2.55;;;;;;;;;;5016276;28;20037;-61
2023/12/21 05:43:48;;;;;;;9.70;1.95;;;;;;;;;;5015102;28;20133;-61
2023/12/21 05:46:15;;;;;;;10.55;2.08;;;;;;;;;;5007238;28;20069;-61
2023/12/21 05:48:41;;;;;;;13.90;2.00;;;;;;;;;;5002944;28;20058;-61
2023/12/21 05:51:07;;;;;;;10.90;2.00;;;;;;;;;;5007506;28;20033;-61
2023/12/21 05:53:33;;;;;;;14.48;2.22;;;;;;;;;;5003340;28;20664;-61
2023/12/21 05:55:59;;;;;;;10.20;2.20;;;;;;;;;;5004107;28;20050;-61
2023/12/21 05:58:25;;;;;;;8.35;1.77;;;;;;;;;;5003694;28;20042;-62
2023/12/21 06:00:51;;;;;;;13.35;1.88;;;;;;;;;;5001856;28;20049;-61
2023/12/21 06:03:17;;;;;;;7.68;1.50;;;;;;;;;;5006060;28;20037;-61
2023/12/21 06:05:43;;;;;;;12.35;1.90;;;;;;;;;;4987406;28;20053;-61
2023/12/21 06:08:09;;;;;;;5.53;1.65;;;;;;;;;;5005186;28;20473;-62
2023/12/21 06:10:35;;;;;;;7.45;1.52;;;;;;;;;;5016176;28;20053;-62
2023/12/21 06:13:01;;;;;;;12.18;1.75;;;;;;;;;;5014665;28;20131;-61
2023/12/21 06:15:27;;;;;;;11.95;1.73;;;;;;;;;;5000902;28;20072;-61
2023/12/21 06:17:53;;;;;;;10.75;2.05;;;;;;;;;;4993651;28;20385;-62
2023/12/21 06:20:19;;;;;;;7.53;1.77;;;;;;;;;;4988096;28;20049;-61
2023/12/21 06:22:45;;;;;;;12.23;1.77;;;;;;;;;;4996904;28;20584;-62
2023/12/21 06:25:11;;;;;;;13.30;2.15;;;;;;;;;;5011776;28;20487;-61
2023/12/21 06:27:37;;;;;;;13.10;2.15;;;;;;;;;;5007107;28;20073;-61
2023/12/21 06:30:04;;;;;;;17.50;2.05;;;;;;;;;;5002619;28;20080;-62
2023/12/21 06:32:30;;;;;;;10.82;2.30;;;;;;;;;;4996173;28;20069;-62
2023/12/21 06:34:56;;;;;;;8.57;1.80;;;;;;;;;;4996314;28;20036;-63
2023/12/21 06:37:22;;;;;;;9.15;1.52;;;;;;;;;;4997738;28;20050;-62
2023/12/21 06:39:48;;;;;;;9.40;1.50;;;;;;;;;;5013308;28;20033;-63
2023/12/21 06:42:14;;;;;;;9.27;1.60;;;;;;;;;;4998722;28;20458;-62
2023/12/21 06:44:40;;;;;;;15.25;1.75;;;;;;;;;;4986342;28;20038;-62
2023/12/21 06:47:06;;;;;;;8.85;1.67;;;;;;;;;;4992581;28;20870;-62
2023/12/21 06:49:32;;;;;;;9.52;1.60;;;;;;;;;;5000164;28;20061;-62
2023/12/21 06:51:58;;;;;;;6.45;1.92;;;;;;;;;;5003981;28;20064;-62
2023/12/21 06:54:24;;;;;;;4.95;1.35;;;;;;;;;;4995294;28;20051;-62
2023/12/21 06:56:50;;;;;;;9.45;1.75;;;;;;;;;;5005161;28;20087;-61
2023/12/21 06:59:16;;;;;;;13.38;1.48;;;;;;;;;;4997477;28;20038;-61
2023/12/21 07:01:42;;;;;;;8.35;1.25;;;;;;;;;;4993988;28;20090;-61
2023/12/21 07:04:08;;;;;;;6.82;1.08;;;;;;;;;;5002280;28;20124;-62
2023/12/21 07:06:35;;;;;;;7.80;1.63;;;;;;;;;;4992864;28;20046;-62
2023/12/21 07:09:01;;;;;;;7.00;1.50;;;;;;;;;;5015510;28;20051;-62
2023/12/21 07:11:27;;;;;;;8.27;1.40;;;;;;;;;;4999376;28;20516;-62
2023/12/21 07:13:54;;;;;;;7.45;1.13;;;;;;;;;;5003982;28;20093;-61
2023/12/21 07:16:20;;;;;;;8.38;1.77;;;;;;;;;;5001220;28;20527;-62
2023/12/21 07:18:46;;;;;;;8.15;1.23;;;;;;;;;;4995596;28;20492;-62
2023/12/21 07:21:13;;;;;;;5.25;0.88;;;;;;;;;;4989983;28;20039;-61
2023/12/21 07:23:39;;;;;;;11.40;1.98;;;;;;;;;;4987055;28;20758;-61
2023/12/21 07:26:05;;;;;;;8.88;1.25;;;;;;;;;;4993735;28;20068;-62
2023/12/21 07:28:31;;;;;;;5.57;1.10;;;;;;;;;;5020401;28;20042;-62
2023/12/21 07:30:59;;;;;;;4.97;1.02;;;;;;;;;;5015958;28;20064;-61
2023/12/21 07:33:25;;;;;;;5.32;1.63;;;;;;;;;;5015256;28;20152;-62
2023/12/21 07:35:51;;;;;;;8.32;1.50;;;;;;;;;;5004543;28;20475;-62
2023/12/21 07:38:17;;;;;;;6.75;1.00;;;;;;;;;;5010116;28;20167;-61
2023/12/21 07:40:44;;;;;;;7.07;1.40;;;;;;;;;;4996494;28;20042;-61
2023/12/21 07:43:10;;;;;;;11.85;1.27;;;;;;;;;;5006647;28;20311;-62
2023/12/21 07:45:36;;;;;;;8.48;1.67;;;;;;;;;;4994199;28;20387;-62
2023/12/21 07:48:02;;;;;;;2.33;0.70;;;;;;;;;;4998119;28;20041;-61
2023/12/21 07:50:29;;;;;;;8.13;1.00;;;;;;;;;;4988888;28;20410;-62
2023/12/21 07:52:56;;;;;;;7.85;0.90;;;;;;;;;;5004500;28;20074;-61
2023/12/21 07:55:23;;;;;;;6.45;1.35;;;;;;;;;;4995569;28;20045;-61
2023/12/21 07:57:49;;;;;;;2.00;0.50;;;;;;;;;;5020949;28;20439;-62
2023/12/21 08:00:15;;;;;;;5.68;0.63;;;;;;;;;;4993213;28;20293;-62
2023/12/21 08:02:44;;;;;;;4.20;0.85;;;;;;;;;;4984774;28;20100;-62
2023/12/21 08:05:14;;;;;;;4.50;0.70;;;;;;;;;;4985855;28;20054;-62
2023/12/21 08:07:40;;;;;;;6.47;1.00;;;;;;;;;;5020907;28;20464;-62
2023/12/21 08:10:09;;;;;;;5.95;1.00;;;;;;;;;;5016101;28;20663;-62
2023/12/21 08:12:36;;;;;;;3.17;1.20;;;;;;;;;;4996007;28;20144;-62
2023/12/21 08:15:02;;;;;;;4.30;1.10;;;;;;;;;;5010606;28;20499;-62
2023/12/21 08:17:29;;;;;;;4.40;1.02;;;;;;;;;;5013060;28;20551;-62
2023/12/21 08:19:55;;;;;;;3.25;0.77;;;;;;;;;;5004223;28;20050;-62
2023/12/21 08:22:22;;;;;;;2.97;0.63;;;;;;;;;;5001633;28;20046;-62
2023/12/21 08:24:51;;;;;;;2.28;0.60;;;;;;;;;;5000670;28;20039;-62
2023/12/21 08:27:17;;;;;;;3.03;0.65;;;;;;;;;;4995165;28;20133;-62
2023/12/21 08:29:43;;;;;;;3.45;0.52;;;;;;;;;;4994660;28;20046;-62
2023/12/21 08:32:09;;;;;;;3.47;0.82;;;;;;;;;;4987729;28;20060;-62
2023/12/21 08:34:35;;;;;;;5.88;0.55;;;;;;;;;;4988370;28;20393;-62
2023/12/21 08:37:01;;;;;;;1.40;0.60;;;;;;;;;;4983171;28;20057;-63
2023/12/21 08:39:27;;;;;;;3.40;0.45;;;;;;;;;;5014589;28;20037;-62
2023/12/21 08:41:53;;;;;;;5.57;0.70;;;;;;;;;;5019331;28;20087;-62
2023/12/21 08:44:19;;;;;;;2.40;0.50;;;;;;;;;;5011979;28;20039;-62
2023/12/21 08:46:45;;;;;;;1.42;0.40;;;;;;;;;;5014658;28;20115;-62
2023/12/21 08:49:12;;;;;;;2.25;0.40;;;;;;;;;;5003762;28;20053;-62
2023/12/21 08:51:38;;;;;;;7.25;1.05;;;;;;;;;;5010108;28;20045;-62
2023/12/21 08:54:05;;;;;;;5.53;0.70;;;;;;;;;;5005358;28;20048;-62
2023/12/21 08:56:34;;;;;;;5.13;1.10;;;;;;;;;;5014425;28;20042;-62
2023/12/21 08:59:01;;;;;;;5.68;0.77;;;;;;;;;;4986832;28;20109;-62
2023/12/21 09:01:30;;;;;;;5.28;0.98;;;;;;;;;;4985710;28;20038;-62
2023/12/21 09:03:57;;;;;;;9.80;1.48;;;;;;;;;;4984286;28;20168;-61
2023/12/21 09:06:23;;;;;;;5.95;1.15;;;;;;;;;;5005204;28;20604;-62
2023/12/21 09:08:49;;;;;;;8.80;1.42;;;;;;;;;;5015537;28;20137;-62
2023/12/21 09:11:15;;;;;;;6.93;1.30;;;;;;;;;;5016717;28;20133;-63
2023/12/21 09:13:41;;;;;;;7.15;0.80;;;;;;;;;;5006310;28;20184;-62
2023/12/21 09:16:07;;;;;;;10.20;1.23;;;;;;;;;;5012421;28;20416;-62
2023/12/21 09:18:33;;;;;;;8.57;1.33;;;;;;;;;;4998034;28;20054;-62
2023/12/21 09:20:59;;;;;;;5.70;1.20;;;;;;;;;;5006601;28;20033;-61
2023/12/21 09:23:25;;;;;;;9.82;1.40;;;;;;;;;;4994225;28;20104;-60
2023/12/21 09:25:51;;;;;;;13.38;1.20;;;;;;;;;;5007112;28;20446;-62
2023/12/21 09:28:17;;;;;;;15.07;1.23;;;;;;;;;;4988111;28;20050;-61
2023/12/21 09:30:43;;;;;;;5.10;1.02;;;;;;;;;;5004045;28;20046;-61
2023/12/21 09:33:11;;;;;;;5.70;1.23;;;;;;;;;;4981824;28;20684;-62
2023/12/21 09:35:37;;;;;;;4.30;0.65;;;;;;;;;;5008123;28;20061;-62
2023/12/21 09:38:03;;;;;;;3.80;0.60;;;;;;;;;;5017396;28;20045;-62
2023/12/21 09:40:29;;;;;;;8.65;1.00;;;;;;;;;;5014938;28;20545;-62
2023/12/21 09:42:59;;;;;;;10.70;1.35;;;;;;;;;;5009477;28;20049;-62
2023/12/21 09:45:26;;;;;;;6.55;0.80;;;;;;;;;;5009242;28;20108;-62
2023/12/21 09:47:52;;;;;;;5.60;0.90;;;;;;;;;;5017704;28;20042;-62
2023/12/21 09:50:19;;;;;;;7.97;0.95;;;;;;;;;;5003222;28;20038;-62
2023/12/21 09:52:47;;;;;;;9.07;1.20;;;;;;;;;;4995203;28;20077;-62
2023/12/21 09:55:14;;;;;;;8.10;1.85;;;;;;;;;;5005693;28;20037;-62
2023/12/21 09:57:40;;;;;;;8.45;1.15;;;;;;;;;;5016251;28;20049;-62
2023/12/21 10:00:07;;;;;;;11.52;1.50;;;;;;;;;;4993925;28;20104;-62
2023/12/21 10:02:33;;;;;;;13.80;2.08;;;;;;;;;;4982671;28;20047;-62
2023/12/21 10:04:59;;;;;;;11.30;1.50;;;;;;;;;;5008263;28;20121;-62
2023/12/21 10:07:26;;;;;;;13.98;1.98;;;;;;;;;;5017089;28;20525;-62
2023/12/21 10:09:52;;;;;;;14.95;2.40;;;;;;;;;;5014814;28;20057;-63
2023/12/21 10:12:18;;;;;;;14.15;2.10;;;;;;;;;;5009140;28;20624;-62
2023/12/21 10:14:44;;;;;;;14.48;2.28;;;;;;;;;;5009720;28;20093;-62
2023/12/21 10:17:10;;;;;;;6.93;1.58;;;;;;;;;;4999727;28;20500;-62
2023/12/21 10:19:44;;;;;;;13.73;2.63;;;;;;;;;;5004718;28;20087;-62
2023/12/21 10:22:10;;;;;;;9.27;1.48;;;;;;;;;;4994844;28;20048;-62
2023/12/21 10:24:37;;;;;;;15.77;1.67;;;;;;;;;;4997638;28;20031;-63
2023/12/21 10:27:03;;;;;;;13.80;2.38;;;;;;;;;;4988301;28;20515;-62
2023/12/21 10:29:29;;;;;;;8.30;1.00;;;;;;;;;;4990405;28;20042;-63
2023/12/21 10:31:56;;;;;;;12.75;1.45;;;;;;;;;;4984256;28;20045;-62
2023/12/21 10:34:23;;;;;;;18.25;1.63;;;;;;;;;;4988972;28;20049;-63
2023/12/21 10:36:49;;;;;;;8.65;1.52;;;;;;;;;;5019058;28;20668;-62
2023/12/21 10:39:15;;;;;;;16.30;2.42;;;;;;;;;;5014021;28;20523;-63
2023/12/21 10:41:45;;;;;;;8.45;1.38;;;;;;;;;;5019103;28;20038;-62
2023/12/21 10:44:12;;;;;;;9.18;1.75;;;;;;;;;;5008441;28;20130;-63
2023/12/21 10:46:41;;;;;;;11.00;1.52;;;;;;;;;;5012811;28;20057;-62
2023/12/21 10:49:08;;;;;;;11.18;1.42;;;;;;;;;;5002347;28;20066;-62
2023/12/21 10:51:39;;;;;;;13.43;1.70;;;;;;;;;;5008644;28;20732;-62
2023/12/21 10:54:08;;;;;;;14.73;2.53;;;;;;;;;;5000149;28;20076;-63
2023/12/21 10:56:36;;;;;;;12.52;1.48;;;;;;;;;;5015661;28;20045;-63
2023/12/21 10:59:02;;;;;;;12.98;1.95;;;;;;;;;;5011900;28;20038;-62
2023/12/21 11:01:30;;;;;;;12.35;1.70;;;;;;;;;;4987426;28;20061;-63
2023/12/21 11:03:59;;;;;;;11.02;1.65;;;;;;;;;;4988966;28;20131;-62
2023/12/21 11:06:25;;;;;;;11.05;1.50;;;;;;;;;;5008003;28;20123;-62
2023/12/21 11:08:52;;;;;;;24.95;2.55;;;;;;;;;;5004975;28;20045;-64
2023/12/21 11:11:22;;;;;;;11.00;1.35;;;;;;;;;;5002500;28;20152;-62
2023/12/21 11:13:52;;;;;;;11.25;1.35;;;;;;;;;;5003136;28;20759;-62
2023/12/21 11:16:20;;;;;;;13.63;2.28;;;;;;;;;;4998163;28;20733;-62
2023/12/21 11:18:47;;;;;;;14.32;1.45;;;;;;;;;;4995589;28;20050;-62
2023/12/21 11:21:14;;;;;;;12.02;1.75;;;;;;;;;;5002732;28;20050;-62
2023/12/21 11:23:44;;;;;;;11.52;1.60;;;;;;;;;;4988452;28;20286;-62
2023/12/21 11:26:11;;;;;;;13.63;1.42;;;;;;;;;;4994586;28;20050;-62
2023/12/21 11:28:38;;;;;;;12.73;1.92;;;;;;;;;;5004462;28;20069;-62
2023/12/21 11:31:13;;;;;;;15.65;1.60;;;;;;;;;;5015134;28;20115;-62
2023/12/21 11:33:40;;;;;;;14.45;2.22;;;;;;;;;;5013415;28;20505;-62
2023/12/21 11:36:06;;;;;;;20.70;1.95;;;;;;;;;;5010774;28;20053;-62
2023/12/21 11:38:47;;;;;;;18.10;2.45;;;;;;;;;;5014867;28;20073;-62
2023/12/21 11:41:14;;;;;;;20.52;2.20;;;;;;;;;;5006513;28;20503;-63
2023/12/21 11:43:41;;;;;;;19.75;2.47;;;;;;;;;;5005915;28;20883;-62
2023/12/21 11:46:10;;;;;;;14.00;1.60;;;;;;;;;;5000442;28;20054;-62
2023/12/21 11:48:38;;;;;;;18.23;2.78;;;;;;;;;;4999839;28;20051;-63
2023/12/21 11:51:05;;;;;;;16.55;3.13;;;;;;;;;;4991191;28;20062;-62
2023/12/21 11:53:31;;;;;;;15.30;1.85;;;;;;;;;;4995956;28;20039;-63
2023/12/21 11:55:57;;;;;;;17.65;2.42;;;;;;;;;;5000356;28;20053;-62
2023/12/21 11:58:23;;;;;;;13.80;1.90;;;;;;;;;;5013736;28;20046;-63
2023/12/21 12:00:50;;;;;;;16.42;1.73;;;;;;;;;;4991895;28;20042;-62
2023/12/21 12:03:17;;;;;;;12.02;2.30;;;;;;;;;;4997778;28;20104;-63
2023/12/21 12:05:44;;;;;;;21.80;2.25;;;;;;;;;;5019043;28;20069;-62
2023/12/21 12:08:10;;;;;;;14.45;2.72;;;;;;;;;;5018050;28;20584;-62
2023/12/21 12:10:36;;;;;;;23.08;2.38;;;;;;;;;;5011433;28;20049;-64
2023/12/21 12:13:03;;;;;;;13.98;2.00;;;;;;;;;;5006602;28;20057;-63
2023/12/21 12:15:29;;;;;;;13.50;2.08;;;;;;;;;;4990547;28;20075;-63
2023/12/21 12:17:55;;;;;;;19.15;2.65;;;;;;;;;;4999796;28;20054;-63
2023/12/21 12:20:21;;;;;;;17.20;2.22;;;;;;;;;;5002020;28;20111;-64
2023/12/21 12:22:50;;;;;;;21.63;2.75;;;;;;;;;;5010558;28;20080;-63
2023/12/21 12:25:16;;;;;;;15.40;1.45;;;;;;;;;;4989393;28;20078;-63
2023/12/21 12:27:43;;;;;;;18.73;2.00;;;;;;;;;;4994707;28;20156;-63
2023/12/21 12:30:10;;;;;;;16.00;1.75;;;;;;;;;;5005781;28;20132;-63
2023/12/21 12:32:36;;;;;;;13.93;1.73;;;;;;;;;;4997450;28;20518;-61
2023/12/21 12:35:02;;;;;;;17.40;1.77;;;;;;;;;;4999382;28;20042;-63
2023/12/21 12:37:28;;;;;;;14.30;2.10;;;;;;;;;;4995396;28;20085;-64
2023/12/21 12:39:54;;;;;;;18.38;2.38;;;;;;;;;;5016548;28;20077;-63
2023/12/21 12:42:20;;;;;;;12.70;1.95;;;;;;;;;;5012285;28;20056;-63
2023/12/21 12:44:46;;;;;;;19.98;2.50;;;;;;;;;;5005696;28;20041;-64
2023/12/21 12:47:12;;;;;;;21.17;2.40;;;;;;;;;;5002948;28;20050;-64
2023/12/21 12:49:38;;;;;;;17.15;2.10;;;;;;;;;;5005120;28;20091;-63
2023/12/21 12:52:05;;;;;;;19.73;1.75;;;;;;;;;;4988063;28;20081;-63
2023/12/21 12:54:32;;;;;;;20.05;1.88;;;;;;;;;;4985041;28;20153;-64
2023/12/21 12:57:01;;;;;;;26.13;2.40;;;;;;;;;;5011446;28;20046;-64
2023/12/21 12:59:27;;;;;;;15.43;2.40;;;;;;;;;;5004014;28;20042;-64
2023/12/21 13:01:53;;;;;;;20.17;2.65;;;;;;;;;;4991025;28;20038;-65
2023/12/21 13:04:19;;;;;;;31.65;2.60;;;;;;;;;;4989844;28;20729;-63
2023/12/21 13:06:49;;;;;;;13.88;2.33;;;;;;;;;;4988202;28;20046;-63
2023/12/21 13:09:15;;;;;;;19.13;2.35;;;;;;;;;;4994159;28;20054;-63
2023/12/21 13:11:41;;;;;;;16.80;2.28;;;;;;;;;;4986142;28;20051;-63
2023/12/21 13:14:08;;;;;;;17.52;1.90;;;;;;;;;;5004201;28;20061;-63
2023/12/21 13:16:34;;;;;;;26.50;3.22;;;;;;;;;;4982045;28;20046;-63
2023/12/21 13:19:02;;;;;;;16.75;1.95;;;;;;;;;;5010852;28;20052;-63
2023/12/21 13:21:28;;;;;;;28.67;3.13;;;;;;;;;;5017489;28;20487;-63
2023/12/21 13:23:54;;;;;;;19.38;2.38;;;;;;;;;;5001440;28;20312;-63
2023/12/21 13:26:20;;;;;;;21.85;3.15;;;;;;;;;;5000238;28;21963;-63
2023/12/21 13:28:46;;;;;;;15.05;3.30;;;;;;;;;;5004508;28;20826;-63
2023/12/21 13:31:13;;;;;;;22.17;2.65;;;;;;;;;;5011974;28;20045;-64
2023/12/21 13:33:40;;;;;;;21.58;2.85;;;;;;;;;;5004530;28;20056;-64
2023/12/21 13:36:06;;;;;;;19.58;3.15;;;;;;;;;;5003457;28;20128;-63
2023/12/21 13:38:32;;;;;;;21.27;2.72;;;;;;;;;;4999980;28;20050;-64
2023/12/21 13:40:58;;;;;;;22.65;2.75;;;;;;;;;;4997290;28;20040;-63
2023/12/21 13:43:24;;;;;;;19.27;2.90;;;;;;;;;;5004129;28;20050;-63
2023/12/21 13:45:50;;;;;;;28.50;2.80;;;;;;;;;;5005953;28;20142;-63
2023/12/21 13:48:18;;;;;;;29.67;3.00;;;;;;;;;;5013273;28;20042;-64
2023/12/21 13:50:44;;;;;;;;;;;;;;;;;;4994110;28;20054;-64
2023/12/21 13:53:10;;;;;;;19.48;3.78;;;;;;;;;;5002922;28;19987;-63
2023/12/21 13:55:36;;;;;;;21.17;3.65;;;;;;;;;;4998851;28;20042;-63
2023/12/21 13:58:02;;;;;;;24.45;3.67;;;;;;;;;;5001897;28;20050;-63
2023/12/21 14:00:28;;;;;;;28.15;3.60;;;;;;;;;;4997192;28;20061;-63
2023/12/21 14:02:54;;;;;;;28.30;3.65;;;;;;;;;;4981894;28;20050;-63
2023/12/21 14:05:20;;;;;;;18.55;2.53;;;;;;;;;;5000129;28;20080;-64
2023/12/21 14:07:46;;;;;;;21.42;3.42;;;;;;;;;;5003603;28;20822;-63
2023/12/21 14:10:12;;;;;;;26.13;3.78;;;;;;;;;;5001438;28;20058;-63
2023/12/21 14:12:38;;;;;;;28.02;3.63;;;;;;;;;;5001086;28;20064;-63
2023/12/21 14:15:05;;;;;;;22.65;3.40;;;;;;;;;;4995005;28;20038;-64
2023/12/21 14:17:31;;;;;;;26.48;3.47;;;;;;;;;;5002749;28;20126;-63
2023/12/21 14:19:57;;;;;;;29.80;3.70;;;;;;;;;;4998600;28;20065;-63
2023/12/21 14:22:23;;;;;;;32.33;4.32;;;;;;;;;;4994788;28;20084;-63
2023/12/21 14:24:49;;;;;;;17.10;2.03;;;;;;;;;;4990528;28;20531;-63
2023/12/21 14:27:17;;;;;;;9.20;1.45;;;;;;;;;;4985100;28;20062;-63
2023/12/21 14:29:43;;;;;;;8.98;0.98;;;;;;;;;;4992994;28;20053;-63
2023/12/21 14:32:10;;;;;;;6.90;0.80;;;;;;;;;;4980524;28;20058;-63